createdAt,value
2022-09-25T10:11:11.846Z,1341.00
2022-09-25T10:12:11.814Z,1398.00
2022-09-25T10:13:11.802Z,1305.00
2022-09-25T10:14:11.924Z,1282.00
2022-09-25T10:15:11.773Z,469.00
2022-09-25T10:16:11.857Z,746.00
2022-09-25T10:17:11.766Z,23.00
2022-09-25T10:18:11.739Z,71.00
2022-09-25T10:19:11.732Z,69.00
2022-09-25T10:20:11.716Z,72.00
2022-09-25T10:21:11.716Z,75.00
2022-09-25T10:22:14.615Z,73.00
2022-09-25T10:23:15.075Z,79.00
2022-09-25T10:24:11.679Z,84.00
2022-09-25T10:25:11.684Z,85.00
2022-09-25T10:26:11.678Z,86.00
2022-09-25T10:27:11.639Z,84.00
2022-09-25T10:28:11.639Z,84.00
2022-09-25T10:29:11.619Z,85.00
2022-09-25T10:30:11.622Z,84.00
2022-09-25T10:31:11.649Z,83.00
2022-09-25T10:32:11.603Z,86.00
2022-09-25T10:33:11.581Z,87.00
2022-09-25T10:34:11.597Z,88.00
2022-09-25T10:35:11.563Z,88.00
2022-09-25T10:36:11.560Z,90.00
2022-09-25T10:37:11.538Z,90.00
2022-09-25T10:38:11.536Z,90.00
2022-09-25T10:39:39.601Z,89.00
2022-09-25T10:40:12.544Z,88.00
2022-09-25T10:41:11.502Z,87.00
2022-09-25T10:42:11.482Z,89.00
2022-09-25T10:43:11.473Z,90.00
2022-09-25T10:44:11.510Z,93.00
2022-09-25T10:45:11.453Z,91.00
2022-09-25T10:46:11.479Z,93.00
2022-09-25T10:47:11.442Z,99.00
2022-09-25T10:48:11.422Z,93.00
2022-09-25T10:49:11.447Z,92.00
2022-09-25T10:50:11.406Z,88.00
2022-09-25T10:51:11.405Z,85.00
2022-09-25T10:52:11.380Z,84.00
2022-09-25T10:53:11.367Z,84.00
2022-09-25T10:54:11.357Z,81.00
2022-09-25T10:55:11.347Z,79.00
2022-09-25T10:56:11.348Z,77.00
2022-09-25T10:57:11.320Z,77.00
2022-09-25T10:58:11.321Z,76.00
2022-09-25T10:59:11.299Z,77.00
2022-09-25T11:00:11.387Z,76.00
2022-09-25T11:01:11.347Z,74.00
2022-09-25T11:02:11.368Z,73.00
2022-09-25T11:03:17.022Z,73.00
2022-09-25T11:04:12.250Z,73.00
2022-09-25T11:05:11.239Z,70.00
2022-09-25T11:06:11.240Z,73.00
2022-09-25T11:07:11.224Z,73.00
2022-09-25T11:08:11.220Z,74.00
2022-09-25T11:09:11.277Z,67.00
2022-09-25T11:10:11.193Z,69.00
2022-09-25T11:11:11.193Z,71.00
2022-09-25T11:12:11.174Z,69.00
2022-09-25T11:13:11.154Z,71.00
2022-09-25T11:14:11.155Z,74.00
2022-09-25T11:15:11.145Z,72.00
2022-09-25T11:16:11.145Z,73.00
2022-09-25T11:17:11.128Z,77.00
2022-09-25T11:18:11.106Z,74.00
2022-09-25T11:19:11.094Z,80.00
2022-09-25T11:20:11.086Z,84.00
2022-09-25T11:21:11.087Z,86.00
2022-09-25T11:22:11.066Z,95.00
2022-09-25T11:23:11.052Z,96.00
2022-09-25T11:24:11.045Z,96.00
2022-09-25T11:25:11.028Z,95.00
2022-09-25T11:26:11.038Z,93.00
2022-09-25T11:27:11.009Z,91.00
2022-09-25T11:28:11.019Z,91.00
2022-09-25T11:29:11.149Z,93.00
2022-09-25T11:30:10.979Z,96.00
2022-09-25T11:31:11.004Z,96.00
2022-09-25T11:32:10.960Z,100.00
2022-09-25T11:33:10.943Z,128.00
2022-09-25T11:34:10.937Z,75.00
2022-09-25T11:35:10.942Z,74.00
2022-09-25T11:36:10.933Z,81.00
2022-09-25T11:37:10.902Z,83.00
2022-09-25T11:38:10.893Z,82.00
2022-09-25T11:39:10.921Z,87.00
2022-09-25T11:40:10.907Z,87.00
2022-09-25T11:41:10.879Z,90.00
2022-09-25T11:42:10.843Z,93.00
2022-09-25T11:43:10.834Z,89.00
2022-09-25T11:44:10.835Z,93.00
2022-09-25T11:45:10.814Z,93.00
2022-09-25T11:46:10.876Z,93.00
2022-09-25T11:47:10.795Z,93.00
2022-09-25T11:48:10.797Z,95.00
2022-09-25T11:49:12.412Z,89.00
2022-09-25T11:50:10.768Z,90.00
2022-09-25T11:51:10.770Z,87.00
2022-09-25T11:52:10.745Z,85.00
2022-09-25T11:53:10.738Z,87.00
2022-09-25T11:54:31.862Z,85.00
2022-09-25T11:55:11.716Z,83.00
2022-09-25T11:56:10.718Z,84.00
2022-09-25T11:57:10.691Z,83.00
2022-09-25T11:58:10.679Z,83.00
2022-09-25T11:59:10.660Z,85.00
2022-09-25T12:00:10.700Z,82.00
2022-09-25T12:01:10.749Z,86.00
2022-09-25T12:02:10.711Z,85.00
2022-09-25T12:03:10.621Z,87.00
2022-09-25T12:04:10.690Z,82.00
2022-09-25T12:05:10.602Z,84.00
2022-09-25T12:06:10.612Z,83.00
2022-09-25T12:07:10.582Z,82.00
2022-09-25T12:08:10.573Z,82.00
2022-09-25T12:09:10.566Z,82.00
2022-09-25T12:10:10.603Z,79.00
2022-09-25T12:11:10.554Z,81.00
2022-09-25T12:12:10.544Z,82.00
2022-09-25T12:13:10.516Z,82.00
2022-09-25T12:14:10.515Z,90.00
2022-09-25T12:15:10.496Z,87.00
2022-09-25T12:16:10.529Z,85.00
2022-09-25T12:17:10.477Z,83.00
2022-09-25T12:18:10.467Z,78.00
2022-09-25T12:19:10.447Z,75.00
2022-09-25T12:20:10.495Z,73.00
2022-09-25T12:21:10.455Z,72.00
2022-09-25T12:22:10.427Z,72.00
2022-09-25T12:23:10.408Z,74.00
2022-09-25T12:24:10.490Z,74.00
2022-09-25T12:25:10.401Z,78.00
2022-09-25T12:26:10.399Z,83.00
2022-09-25T12:27:10.368Z,79.00
2022-09-25T12:28:10.361Z,88.00
2022-09-25T12:29:10.352Z,86.00
2022-09-25T12:30:10.504Z,94.00
2022-09-25T12:31:10.393Z,89.00
2022-09-25T12:32:10.330Z,88.00
2022-09-25T12:33:10.301Z,98.00
2022-09-25T12:34:10.323Z,97.00
2022-09-25T12:35:10.283Z,101.00
2022-09-25T12:36:10.293Z,95.00
2022-09-25T12:37:10.262Z,99.00
2022-09-25T12:38:10.271Z,98.00
2022-09-25T12:39:10.265Z,102.00
2022-09-25T12:40:10.263Z,102.00
2022-09-25T12:41:10.231Z,100.00
2022-09-25T12:42:10.215Z,99.00
2022-09-25T12:43:10.194Z,94.00
2022-09-25T12:44:10.226Z,91.00
2022-09-25T12:45:10.175Z,89.00
2022-09-25T12:46:10.438Z,93.00
2022-09-25T12:47:10.160Z,89.00
2022-09-25T12:48:10.149Z,85.00
2022-09-25T12:49:10.126Z,79.00
2022-09-25T12:50:10.127Z,78.00
2022-09-25T12:51:10.131Z,80.00
2022-09-25T12:52:10.110Z,81.00
2022-09-25T12:53:10.091Z,82.00
2022-09-25T12:54:10.127Z,80.00
2022-09-25T12:55:10.069Z,81.00
2022-09-25T12:56:10.077Z,79.00
2022-09-25T12:57:10.050Z,84.00
2022-09-25T12:58:10.039Z,79.00
2022-09-25T12:59:10.034Z,90.00
2022-09-25T13:00:10.021Z,83.00
2022-09-25T13:01:10.123Z,94.00
2022-09-25T13:02:10.034Z,103.00
2022-09-25T13:03:09.988Z,96.00
2022-09-25T13:04:09.994Z,106.00
2022-09-25T13:05:09.962Z,112.00
2022-09-25T13:06:09.975Z,111.00
2022-09-25T13:07:09.955Z,106.00
2022-09-25T13:08:09.942Z,108.00
2022-09-25T13:09:09.926Z,103.00
2022-09-25T13:10:09.915Z,102.00
2022-09-25T13:11:09.915Z,96.00
2022-09-25T13:12:09.896Z,88.00
2022-09-25T13:13:12.996Z,86.00
2022-09-25T13:14:09.922Z,87.00
2022-09-25T13:15:09.856Z,88.00
2022-09-25T13:16:09.944Z,94.00
2022-09-25T13:17:09.838Z,93.00
2022-09-25T13:18:09.828Z,90.00
2022-09-25T13:19:09.825Z,95.00
2022-09-25T13:20:09.811Z,98.00
2022-09-25T13:21:09.819Z,96.00
2022-09-25T13:22:09.789Z,94.00
2022-09-25T13:23:09.781Z,100.00
2022-09-25T13:24:09.818Z,91.00
2022-09-25T13:25:09.767Z,91.00
2022-09-25T13:26:09.782Z,93.00
2022-09-25T13:27:09.731Z,90.00
2022-09-25T13:28:09.720Z,90.00
2022-09-25T13:29:09.711Z,89.00
2022-09-25T13:30:09.703Z,90.00
2022-09-25T13:31:09.970Z,92.00
2022-09-25T13:32:09.674Z,93.00
2022-09-25T13:33:09.673Z,94.00
2022-09-25T13:34:09.695Z,95.00
2022-09-25T13:35:09.653Z,91.00
2022-09-25T13:36:09.646Z,94.00
2022-09-25T13:37:09.633Z,87.00
2022-09-25T13:38:09.648Z,86.00
2022-09-25T13:39:09.613Z,85.00
2022-09-25T13:40:09.625Z,87.00
2022-09-25T13:41:09.605Z,87.00
2022-09-25T13:42:09.576Z,87.00
2022-09-25T13:43:09.567Z,93.00
2022-09-25T13:44:09.559Z,95.00
2022-09-25T13:45:09.555Z,96.00
2022-09-25T13:46:09.640Z,97.00
2022-09-25T13:47:09.519Z,102.00
2022-09-25T13:48:09.507Z,112.00
2022-09-25T13:49:09.603Z,122.00
2022-09-25T13:50:09.489Z,131.00
2022-09-25T13:51:09.489Z,140.00
2022-09-25T13:52:09.466Z,136.00
2022-09-25T13:53:09.459Z,138.00
2022-09-25T13:54:09.439Z,130.00
2022-09-25T13:55:09.438Z,122.00
2022-09-25T13:56:09.432Z,115.00
2022-09-25T13:57:09.411Z,102.00
2022-09-25T13:58:09.401Z,96.00
2022-09-25T13:59:09.391Z,92.00
2022-09-25T14:00:09.382Z,88.00
2022-09-25T14:01:09.432Z,85.00
2022-09-25T14:02:09.452Z,84.00
2022-09-25T14:03:09.354Z,83.00
2022-09-25T14:04:09.344Z,86.00
2022-09-25T14:05:09.333Z,90.00
2022-09-25T14:06:09.326Z,92.00
2022-09-25T14:07:09.304Z,98.00
2022-09-25T14:08:09.296Z,92.00
2022-09-25T14:09:09.288Z,90.00
2022-09-25T14:10:09.276Z,85.00
2022-09-25T14:11:09.286Z,80.00
2022-09-25T14:12:09.256Z,77.00
2022-09-25T14:13:09.247Z,77.00
2022-09-25T14:14:09.227Z,81.00
2022-09-25T14:15:09.226Z,84.00
2022-09-25T14:16:09.240Z,85.00
2022-09-25T14:17:09.208Z,83.00
2022-09-25T14:18:09.189Z,81.00
2022-09-25T14:19:09.179Z,80.00
2022-09-25T14:20:09.173Z,79.00
2022-09-25T14:21:09.169Z,77.00
2022-09-25T14:22:09.140Z,84.00
2022-09-25T14:23:09.140Z,89.00
2022-09-25T14:24:09.125Z,90.00
2022-09-25T14:25:09.121Z,92.00
2022-09-25T14:26:09.111Z,94.00
2022-09-25T14:27:09.093Z,90.00
2022-09-25T14:28:09.081Z,90.00
2022-09-25T14:29:09.072Z,82.00
2022-09-25T14:30:09.061Z,85.00
2022-09-25T14:31:09.089Z,84.00
2022-09-25T14:32:09.081Z,86.00
2022-09-25T14:33:09.033Z,85.00
2022-09-25T14:34:09.015Z,90.00
2022-09-25T14:35:09.005Z,90.00
2022-09-25T14:36:09.015Z,93.00
2022-09-25T14:37:08.988Z,96.00
2022-09-25T14:38:08.983Z,89.00
2022-09-25T14:39:08.969Z,85.00
2022-09-25T14:40:09.009Z,85.00
2022-09-25T14:41:08.957Z,84.00
2022-09-25T14:42:08.927Z,89.00
2022-09-25T14:43:08.924Z,102.00
2022-09-25T14:44:08.975Z,102.00
2022-09-25T14:45:08.901Z,105.00
2022-09-25T14:46:11.865Z,100.00
2022-09-25T14:47:08.880Z,106.00
2022-09-25T14:48:08.879Z,105.00
2022-09-25T14:49:08.860Z,95.00
2022-09-25T14:50:08.850Z,92.00
2022-09-25T14:51:08.852Z,87.00
2022-09-25T14:52:08.820Z,81.00
2022-09-25T14:53:08.821Z,77.00
2022-09-25T14:54:08.800Z,72.00
2022-09-25T14:55:08.791Z,66.00
2022-09-25T14:56:08.791Z,69.00
2022-09-25T14:57:08.773Z,68.00
2022-09-25T14:58:08.753Z,68.00
2022-09-25T14:59:08.752Z,70.00
2022-09-25T15:00:08.734Z,68.00
2022-09-25T15:01:08.822Z,70.00
2022-09-25T15:02:08.809Z,70.00
2022-09-25T15:03:08.713Z,73.00
2022-09-25T15:04:08.748Z,69.00
2022-09-25T15:05:08.693Z,67.00
2022-09-25T15:06:12.610Z,66.00
2022-09-25T15:07:09.666Z,63.00
2022-09-25T15:08:08.662Z,62.00
2022-09-25T15:09:08.655Z,63.00
2022-09-25T15:10:08.638Z,65.00
2022-09-25T15:11:08.637Z,69.00
2022-09-25T15:12:08.611Z,67.00
2022-09-25T15:13:08.609Z,66.00
2022-09-25T15:14:08.589Z,66.00
2022-09-25T15:15:08.614Z,66.00
2022-09-25T15:16:08.638Z,71.00
2022-09-25T15:17:08.610Z,66.00
2022-09-25T15:18:08.552Z,65.00
2022-09-25T15:19:08.547Z,69.00
2022-09-25T15:20:08.531Z,68.00
2022-09-25T15:21:08.541Z,61.00
2022-09-25T15:22:08.512Z,57.00
2022-09-25T15:23:08.561Z,54.00
2022-09-25T15:24:08.492Z,51.00
2022-09-25T15:25:08.482Z,49.00
2022-09-25T15:26:08.481Z,50.00
2022-09-25T15:27:08.461Z,53.00
2022-09-25T15:28:08.443Z,54.00
2022-09-25T15:29:08.435Z,54.00
2022-09-25T15:30:08.434Z,49.00
2022-09-25T15:31:08.481Z,44.00
2022-09-25T15:32:08.395Z,41.00
2022-09-25T15:33:08.395Z,42.00
2022-09-25T15:34:08.453Z,50.00
2022-09-25T15:35:08.375Z,47.00
2022-09-25T15:36:08.368Z,46.00
2022-09-25T15:37:08.358Z,49.00
2022-09-25T15:38:08.339Z,49.00
2022-09-25T15:39:08.328Z,45.00
2022-09-25T15:40:08.317Z,49.00
2022-09-25T15:41:08.328Z,46.00
2022-09-25T15:42:08.299Z,46.00
2022-09-25T15:43:08.290Z,46.00
2022-09-25T15:44:08.280Z,44.00
2022-09-25T15:45:08.277Z,44.00
2022-09-25T15:46:08.309Z,46.00
2022-09-25T15:47:08.250Z,44.00
2022-09-25T15:48:08.231Z,40.00
2022-09-25T15:49:08.230Z,41.00
2022-09-25T15:50:08.212Z,43.00
2022-09-25T15:51:08.222Z,38.00
2022-09-25T15:52:08.191Z,34.00
2022-09-25T15:53:08.183Z,35.00
2022-09-25T15:54:08.169Z,37.00
2022-09-25T15:55:08.162Z,36.00
2022-09-25T15:56:08.163Z,37.00
2022-09-25T15:57:08.146Z,34.00
2022-09-25T15:58:08.124Z,32.00
2022-09-25T15:59:08.115Z,36.00
2022-09-25T16:00:08.106Z,30.00
2022-09-25T16:01:08.160Z,28.00
2022-09-25T16:02:08.194Z,25.00
2022-09-25T16:03:08.112Z,23.00
2022-09-25T16:04:08.084Z,23.00
2022-09-25T16:05:08.062Z,26.00
2022-09-25T16:06:08.044Z,25.00
2022-09-25T16:07:08.056Z,25.00
2022-09-25T16:08:08.018Z,29.00
2022-09-25T16:09:08.035Z,29.00
2022-09-25T16:10:08.007Z,29.00
2022-09-25T16:11:08.001Z,29.00
2022-09-25T16:12:07.990Z,29.00
2022-09-25T16:13:07.980Z,33.00
2022-09-25T16:14:07.960Z,34.00
2022-09-25T16:15:07.951Z,33.00
2022-09-25T16:16:08.039Z,32.00
2022-09-25T16:17:07.950Z,30.00
2022-09-25T16:18:07.921Z,29.00
2022-09-25T16:19:07.957Z,32.00
2022-09-25T16:20:07.893Z,29.00
2022-09-25T16:21:07.892Z,32.00
2022-09-25T16:22:07.894Z,31.00
2022-09-25T16:23:07.872Z,30.00
2022-09-25T16:24:07.854Z,30.00
2022-09-25T16:25:07.845Z,31.00
2022-09-25T16:26:07.835Z,25.00
2022-09-25T16:27:07.843Z,24.00
2022-09-25T16:28:07.814Z,24.00
2022-09-25T16:29:07.855Z,26.00
2022-09-25T16:30:07.788Z,26.00
2022-09-25T16:31:07.908Z,22.00
2022-09-25T16:32:07.776Z,23.00
2022-09-25T16:33:07.767Z,20.00
2022-09-25T16:34:07.750Z,20.00
2022-09-25T16:35:07.738Z,21.00
2022-09-25T16:36:16.892Z,19.00
2022-09-25T16:37:08.719Z,17.00
2022-09-25T16:38:07.698Z,15.00
2022-09-25T16:39:07.813Z,18.00
2022-09-25T16:40:07.679Z,19.00
2022-09-25T16:41:07.692Z,19.00
2022-09-25T16:42:07.661Z,21.00
2022-09-25T16:43:07.652Z,17.00
2022-09-25T16:44:07.641Z,17.00
2022-09-25T16:45:07.642Z,12.00
2022-09-25T16:46:07.699Z,11.00
2022-09-25T16:47:07.614Z,9.00
2022-09-25T16:48:07.592Z,7.00
2022-09-25T16:49:07.660Z,10.00
2022-09-25T16:50:07.574Z,11.00
2022-09-25T16:51:07.584Z,10.00
2022-09-25T16:52:07.554Z,10.00
2022-09-25T16:53:07.545Z,9.00
2022-09-25T16:54:07.535Z,7.00
2022-09-25T16:55:07.526Z,7.00
2022-09-25T16:56:07.526Z,5.00
2022-09-25T16:57:07.506Z,6.00
2022-09-25T16:58:07.487Z,4.00
2022-09-25T16:59:07.492Z,6.00
2022-09-25T17:00:07.466Z,6.00
2022-09-25T17:01:07.539Z,4.00
2022-09-25T17:02:07.542Z,5.00
2022-09-25T17:03:07.561Z,5.00
2022-09-25T17:04:07.427Z,6.00
2022-09-25T17:05:07.428Z,6.00
2022-09-25T17:06:07.410Z,6.00
2022-09-25T17:07:07.417Z,2.00
2022-09-25T17:08:07.389Z,1.00
2022-09-25T17:09:07.476Z,1.00
2022-09-25T17:10:07.360Z,2.00
2022-09-25T17:11:07.362Z,8.00
2022-09-25T17:12:07.361Z,3.00
2022-09-25T17:13:07.350Z,2.00
2022-09-25T17:14:07.339Z,2.00
2022-09-25T17:15:07.321Z,1.00
2022-09-25T17:16:07.382Z,1.00
2022-09-25T17:17:07.302Z,1.00
2022-09-25T17:18:07.298Z,2.00
2022-09-25T17:19:07.317Z,2.00
2022-09-25T17:20:07.313Z,0.00
2022-09-25T17:21:07.303Z,0.00
2022-09-25T17:22:07.305Z,0.00
2022-09-25T17:23:07.245Z,1.00
2022-09-25T17:24:07.214Z,1.00
2022-09-25T17:25:07.205Z,1.00
2022-09-25T17:26:07.196Z,1.00
2022-09-25T17:27:07.258Z,0.00
2022-09-25T17:28:07.226Z,0.00
2022-09-25T17:29:07.292Z,0.00
2022-09-25T17:30:07.207Z,0.00
2022-09-25T17:31:07.247Z,0.00
2022-09-25T17:32:07.197Z,0.00
2022-09-25T17:33:07.167Z,0.00
2022-09-25T17:34:07.168Z,0.00
2022-09-25T17:35:09.316Z,0.00
2022-09-25T17:36:08.140Z,0.00
2022-09-25T17:37:07.139Z,0.00
2022-09-25T17:38:07.120Z,0.00
2022-09-25T17:39:07.110Z,0.00
2022-09-25T17:40:07.102Z,0.00
2022-09-25T17:41:07.114Z,0.00
2022-09-25T17:42:07.091Z,0.00
2022-09-25T17:43:07.071Z,0.00
2022-09-25T17:44:07.062Z,0.00
2022-09-25T17:45:07.044Z,0.00
2022-09-25T17:46:07.092Z,0.00
2022-09-25T17:47:07.032Z,0.00
2022-09-25T17:48:07.012Z,0.00
2022-09-25T17:49:07.024Z,0.00
2022-09-25T17:50:06.994Z,0.00
2022-09-25T17:51:06.989Z,0.00
2022-09-25T17:52:06.987Z,0.00
2022-09-25T17:53:06.957Z,0.00
2022-09-25T17:54:06.959Z,0.00
2022-09-25T17:55:06.946Z,0.00
2022-09-25T17:56:06.943Z,0.00
2022-09-25T17:57:06.935Z,0.00
2022-09-25T17:58:06.928Z,0.00
2022-09-25T17:59:06.898Z,0.00
2022-09-25T18:00:06.897Z,0.00
2022-09-25T18:01:06.956Z,0.00
2022-09-25T18:02:06.939Z,0.00
2022-09-25T18:03:06.938Z,0.00
2022-09-25T18:04:06.850Z,0.00
2022-09-25T18:05:06.830Z,0.00
2022-09-25T18:06:06.838Z,0.00
2022-09-25T18:07:06.819Z,0.00
2022-09-25T18:08:06.800Z,0.00
2022-09-25T18:09:06.809Z,0.00
2022-09-25T18:10:06.781Z,0.00
2022-09-25T18:11:06.769Z,0.00
2022-09-25T18:12:06.772Z,0.00
2022-09-25T18:13:06.748Z,0.00
2022-09-25T18:14:06.744Z,0.00
2022-09-25T18:15:06.732Z,0.00
2022-09-25T18:16:06.928Z,0.00
2022-09-25T18:17:06.714Z,0.00
2022-09-25T18:18:06.722Z,0.00
2022-09-25T18:19:06.687Z,0.00
2022-09-25T18:20:06.676Z,0.00
2022-09-25T18:21:09.275Z,0.00
2022-09-25T18:22:06.674Z,0.00
2022-09-25T18:23:06.640Z,0.00
2022-09-25T18:24:06.633Z,0.00
2022-09-25T18:25:06.617Z,0.00
2022-09-25T18:26:06.614Z,0.00
2022-09-25T18:27:06.616Z,0.00
2022-09-25T18:28:06.597Z,0.00
2022-09-25T18:29:06.618Z,0.00
2022-09-25T18:30:06.578Z,0.00
2022-09-25T18:31:06.624Z,0.00
2022-09-25T18:32:06.559Z,0.00
2022-09-25T18:33:06.539Z,0.00
2022-09-25T18:34:06.530Z,0.00
2022-09-25T18:35:06.507Z,0.00
2022-09-25T18:36:06.506Z,0.00
2022-09-25T18:37:06.503Z,0.00
2022-09-25T18:38:06.482Z,0.00
2022-09-25T18:39:06.470Z,0.00
2022-09-25T18:40:06.461Z,0.00
2022-09-25T18:41:06.451Z,0.00
2022-09-25T18:42:06.457Z,0.00
2022-09-25T18:43:06.431Z,0.00
2022-09-25T18:44:06.422Z,0.00
2022-09-25T18:45:06.412Z,0.00
2022-09-25T18:46:06.469Z,0.00
2022-09-25T18:47:06.393Z,0.00
2022-09-25T18:48:06.374Z,0.00
2022-09-25T18:49:06.361Z,0.00
2022-09-25T18:50:06.353Z,0.00
2022-09-25T18:51:06.347Z,0.00
2022-09-25T18:52:06.345Z,0.00
2022-09-25T18:53:06.324Z,0.00
2022-09-25T18:54:06.323Z,0.00
2022-09-25T18:55:06.307Z,0.00
2022-09-25T18:56:06.296Z,0.00
2022-09-25T18:57:06.285Z,0.00
2022-09-25T18:58:06.267Z,0.00
2022-09-25T18:59:06.256Z,0.00
2022-09-25T19:00:06.257Z,0.00
2022-09-25T19:01:06.438Z,0.00
2022-09-25T19:02:06.335Z,0.00
2022-09-25T19:03:06.354Z,0.00
2022-09-25T19:04:06.228Z,0.00
2022-09-25T19:05:06.198Z,0.00
2022-09-25T19:06:06.190Z,0.00
2022-09-25T19:07:06.197Z,0.00
2022-09-25T19:08:06.159Z,0.00
2022-09-25T19:09:06.191Z,0.00
2022-09-25T19:10:06.141Z,0.00
2022-09-25T19:11:06.132Z,0.00
2022-09-25T19:12:06.141Z,0.00
2022-09-25T19:13:06.121Z,0.00
2022-09-25T19:14:06.101Z,0.00
2022-09-25T19:15:06.084Z,0.00
2022-09-25T19:16:06.141Z,0.00
2022-09-25T19:17:06.088Z,0.00
2022-09-25T19:18:06.064Z,0.00
2022-09-25T19:19:06.044Z,0.00
2022-09-25T19:20:06.052Z,0.00
2022-09-25T19:21:06.034Z,0.00
2022-09-25T19:22:06.045Z,0.00
2022-09-25T19:23:06.012Z,0.00
2022-09-25T19:24:06.002Z,0.00
2022-09-25T19:25:05.986Z,0.00
2022-09-25T19:26:05.984Z,0.00
2022-09-25T19:27:05.978Z,0.00
2022-09-25T19:28:05.961Z,0.00
2022-09-25T19:29:06.001Z,0.00
2022-09-25T19:30:06.028Z,0.00
2022-09-25T19:31:05.989Z,0.00
2022-09-25T19:32:05.935Z,0.00
2022-09-25T19:33:05.899Z,0.00
2022-09-25T19:34:05.893Z,0.00
2022-09-25T19:35:05.880Z,0.00
2022-09-25T19:36:05.875Z,0.00
2022-09-25T19:37:05.870Z,0.00
2022-09-25T19:38:10.364Z,0.00
2022-09-25T19:39:06.831Z,0.00
2022-09-25T19:40:05.822Z,0.00
2022-09-25T19:41:05.916Z,0.00
2022-09-25T19:42:05.820Z,0.00
2022-09-25T19:43:05.799Z,0.00
2022-09-25T19:44:11.893Z,0.00
2022-09-25T19:45:06.770Z,0.00
2022-09-25T19:46:05.843Z,0.00
2022-09-25T19:47:05.764Z,0.00
2022-09-25T19:48:05.745Z,0.00
2022-09-25T19:49:05.724Z,0.00
2022-09-25T19:50:05.728Z,0.00
2022-09-25T19:51:05.711Z,0.00
2022-09-25T19:52:05.716Z,0.00
2022-09-25T19:53:05.685Z,0.00
2022-09-25T19:54:05.676Z,0.00
2022-09-25T19:55:05.666Z,0.00
2022-09-25T19:56:05.658Z,0.00
2022-09-25T19:57:05.937Z,0.00
2022-09-25T19:58:05.638Z,0.00
2022-09-25T19:59:05.720Z,0.00
2022-09-25T20:00:05.618Z,0.00
2022-09-25T20:01:05.665Z,0.00
2022-09-25T20:02:05.674Z,0.00
2022-09-25T20:03:05.633Z,0.00
2022-09-25T20:04:08.397Z,0.00
2022-09-25T20:05:05.558Z,0.00
2022-09-25T20:06:05.549Z,0.00
2022-09-25T20:07:05.531Z,0.00
2022-09-25T20:08:05.560Z,0.00
2022-09-25T20:09:05.634Z,0.00
2022-09-25T20:10:05.508Z,0.00
2022-09-25T20:11:05.491Z,0.00
2022-09-25T20:12:05.489Z,0.00
2022-09-25T20:13:05.483Z,0.00
2022-09-25T20:14:05.472Z,0.00
2022-09-25T20:15:05.453Z,0.00
2022-09-25T20:16:05.516Z,0.00
2022-09-25T20:17:09.705Z,0.00
2022-09-25T20:18:05.442Z,0.00
2022-09-25T20:19:05.490Z,0.00
2022-09-25T20:20:05.405Z,0.00
2022-09-25T20:21:05.387Z,0.00
2022-09-25T20:22:05.384Z,0.00
2022-09-25T20:23:05.377Z,0.00
2022-09-25T20:24:05.363Z,0.00
2022-09-25T20:25:05.348Z,0.00
2022-09-25T20:26:05.336Z,0.00
2022-09-25T20:27:05.328Z,0.00
2022-09-25T20:28:05.336Z,0.00
2022-09-25T20:29:05.386Z,0.00
2022-09-25T20:30:05.300Z,0.00
2022-09-25T20:31:05.385Z,0.00
2022-09-25T20:32:05.277Z,0.00
2022-09-25T20:33:05.269Z,0.00
2022-09-25T20:34:05.276Z,0.00
2022-09-25T20:35:05.240Z,0.00
2022-09-25T20:36:05.240Z,0.00
2022-09-25T20:37:05.219Z,0.00
2022-09-25T20:38:05.231Z,0.00
2022-09-25T20:39:05.198Z,0.00
2022-09-25T20:40:05.195Z,0.00
2022-09-25T20:41:05.205Z,0.00
2022-09-25T20:42:05.169Z,0.00
2022-09-25T20:43:05.162Z,0.00
2022-09-25T20:44:05.255Z,0.00
2022-09-25T20:45:05.144Z,0.00
2022-09-25T20:46:05.179Z,0.00
2022-09-25T20:47:05.113Z,0.00
2022-09-25T20:48:05.114Z,0.00
2022-09-25T20:49:05.096Z,0.00
2022-09-25T20:50:05.085Z,0.00
2022-09-25T20:51:05.064Z,0.00
2022-09-25T20:52:05.066Z,0.00
2022-09-25T20:53:05.065Z,0.00
2022-09-25T20:54:05.179Z,0.00
2022-09-25T20:55:05.026Z,0.00
2022-09-25T20:56:05.017Z,0.00
2022-09-25T20:57:05.005Z,0.00
2022-09-25T20:58:05.008Z,0.00
2022-09-25T20:59:04.987Z,0.00
2022-09-25T21:00:04.982Z,0.00
2022-09-25T21:01:05.020Z,0.00
2022-09-25T21:02:05.209Z,0.00
2022-09-25T21:03:05.046Z,0.00
2022-09-25T21:04:04.952Z,0.00
2022-09-25T21:05:04.933Z,0.00
2022-09-25T21:06:04.916Z,0.00
2022-09-25T21:07:04.901Z,0.00
2022-09-25T21:08:04.904Z,0.00
2022-09-25T21:09:04.880Z,0.00
2022-09-25T21:10:04.872Z,0.00
2022-09-25T21:11:04.851Z,0.00
2022-09-25T21:12:04.852Z,0.00
2022-09-25T21:13:04.852Z,0.00
2022-09-25T21:14:04.838Z,0.00
2022-09-25T21:15:04.811Z,0.00
2022-09-25T21:16:04.814Z,0.00
2022-09-25T21:17:04.857Z,0.00
2022-09-25T21:18:04.806Z,0.00
2022-09-25T21:19:04.898Z,0.00
2022-09-25T21:20:04.754Z,0.00
2022-09-25T21:21:04.744Z,0.00
2022-09-25T21:22:04.744Z,0.00
2022-09-25T21:23:04.735Z,0.00
2022-09-25T21:24:04.737Z,0.00
2022-09-25T21:25:04.707Z,0.00
2022-09-25T21:26:04.704Z,0.00
2022-09-25T21:27:04.681Z,0.00
2022-09-25T21:28:04.687Z,0.00
2022-09-25T21:29:04.664Z,0.00
2022-09-25T21:30:04.674Z,0.00
2022-09-25T21:31:04.698Z,0.00
2022-09-25T21:32:04.628Z,0.00
2022-09-25T21:33:04.635Z,0.00
2022-09-25T21:34:04.609Z,0.00
2022-09-25T21:35:04.599Z,0.00
2022-09-25T21:36:04.590Z,0.00
2022-09-25T21:37:04.584Z,0.00
2022-09-25T21:38:04.581Z,0.00
2022-09-25T21:39:04.656Z,0.00
2022-09-25T21:40:05.696Z,0.00
2022-09-25T21:41:04.532Z,0.00
2022-09-25T21:42:04.532Z,0.00
2022-09-25T21:43:04.534Z,0.00
2022-09-25T21:44:04.514Z,0.00
2022-09-25T21:45:04.493Z,0.00
2022-09-25T21:46:04.554Z,0.00
2022-09-25T21:47:04.473Z,0.00
2022-09-25T21:48:04.473Z,0.00
2022-09-25T21:49:04.476Z,0.00
2022-09-25T21:50:04.454Z,0.00
2022-09-25T21:51:04.434Z,0.00
2022-09-25T21:52:04.425Z,0.00
2022-09-25T21:53:04.443Z,0.00
2022-09-25T21:54:04.397Z,0.00
2022-09-25T21:55:04.395Z,0.00
2022-09-25T21:56:04.376Z,0.00
2022-09-25T21:57:04.375Z,0.00
2022-09-25T21:58:04.400Z,0.00
2022-09-25T21:59:08.853Z,0.00
2022-09-25T22:00:05.339Z,0.00
2022-09-25T22:01:04.398Z,0.00
2022-09-25T22:02:04.317Z,0.00
2022-09-25T22:03:04.369Z,0.00
2022-09-25T22:04:04.303Z,0.00
2022-09-25T22:05:04.304Z,0.00
2022-09-25T22:06:04.279Z,0.00
2022-09-25T22:07:04.270Z,0.00
2022-09-25T22:08:04.269Z,0.00
2022-09-25T22:09:04.240Z,0.00
2022-09-25T22:10:04.230Z,0.00
2022-09-25T22:11:04.221Z,0.00
2022-09-25T22:12:04.212Z,0.00
2022-09-25T22:13:04.221Z,0.00
2022-09-25T22:14:04.192Z,0.00
2022-09-25T22:15:04.182Z,0.00
2022-09-25T22:16:04.180Z,0.00
2022-09-25T22:17:04.243Z,0.00
2022-09-25T22:18:04.162Z,0.00
2022-09-25T22:19:04.140Z,0.00
2022-09-25T22:20:05.578Z,0.00
2022-09-25T22:21:04.115Z,0.00
2022-09-25T22:22:04.104Z,0.00
2022-09-25T22:23:04.137Z,0.00
2022-09-25T22:24:04.084Z,0.00
2022-09-25T22:25:04.074Z,0.00
2022-09-25T22:26:04.066Z,0.00
2022-09-25T22:27:04.060Z,0.00
2022-09-25T22:28:04.044Z,0.00
2022-09-25T22:29:04.025Z,0.00
2022-09-25T22:30:04.014Z,0.00
2022-09-25T22:31:04.106Z,0.00
2022-09-25T22:32:03.994Z,0.00
2022-09-25T22:33:03.996Z,0.00
2022-09-25T22:34:03.974Z,0.00
2022-09-25T22:35:03.969Z,0.00
2022-09-25T22:36:03.946Z,0.00
2022-09-25T22:37:03.948Z,0.00
2022-09-25T22:38:03.937Z,0.00
2022-09-25T22:39:03.925Z,0.00
2022-09-25T22:40:03.909Z,0.00
2022-09-25T22:41:03.898Z,0.00
2022-09-25T22:42:03.887Z,0.00
2022-09-25T22:43:03.888Z,0.00
2022-09-25T22:44:03.878Z,0.00
2022-09-25T22:45:03.860Z,0.00
2022-09-25T22:46:03.869Z,0.00
2022-09-25T22:47:04.203Z,0.00
2022-09-25T22:48:03.845Z,0.00
2022-09-25T22:49:03.810Z,0.00
2022-09-25T22:50:03.799Z,0.00
2022-09-25T22:51:03.797Z,0.00
2022-09-25T22:52:03.839Z,0.00
2022-09-25T22:53:03.802Z,0.00
2022-09-25T22:54:03.762Z,0.00
2022-09-25T22:55:03.753Z,0.00
2022-09-25T22:56:03.732Z,0.00
2022-09-25T22:57:03.732Z,0.00
2022-09-25T22:58:03.732Z,0.00
2022-09-25T22:59:03.712Z,0.00
2022-09-25T23:00:03.696Z,0.00
2022-09-25T23:01:03.757Z,0.00
2022-09-25T23:02:03.673Z,0.00
2022-09-25T23:03:03.683Z,0.00
2022-09-25T23:04:03.654Z,0.00
2022-09-25T23:05:06.622Z,0.00
2022-09-25T23:06:03.636Z,0.00
2022-09-25T23:07:03.636Z,0.00
2022-09-25T23:08:03.626Z,0.00
2022-09-25T23:09:03.607Z,0.00
2022-09-25T23:10:03.594Z,0.00
2022-09-25T23:11:07.512Z,0.00
2022-09-25T23:12:03.577Z,0.00
2022-09-25T23:13:03.583Z,0.00
2022-09-25T23:14:03.557Z,0.00